createdAt,value
2018-02-23T00:00:31.036Z,4.95
2018-02-23T00:02:59.087Z,4.90
2018-02-23T00:05:27.122Z,4.62
2018-02-23T00:07:55.160Z,5.10
2018-02-23T00:10:23.210Z,4.93
2018-02-23T00:12:51.277Z,5.10
2018-02-23T00:15:20.996Z,5.00
2018-02-23T00:17:48.936Z,4.55
2018-02-23T00:20:16.977Z,5.20
2018-02-23T00:22:46.866Z,4.93
2018-02-23T00:25:16.328Z,4.80
2018-02-23T00:27:46.038Z,5.30
2018-02-23T00:30:14.247Z,4.75
2018-02-23T00:32:43.933Z,4.55
2018-02-23T00:35:11.908Z,5.20
2018-02-23T00:37:39.973Z,4.55
2018-02-23T00:40:08.155Z,5.10
2018-02-23T00:42:36.221Z,5.18
2018-02-23T00:45:04.290Z,4.87
2018-02-23T00:47:32.363Z,5.20
2018-02-23T00:50:00.397Z,4.68
2018-02-23T00:52:28.497Z,5.03
2018-02-23T00:54:57.691Z,5.35
2018-02-23T00:57:25.739Z,4.68
2018-02-23T00:59:53.805Z,5.28
2018-02-23T01:02:22.995Z,5.43
2018-02-23T01:04:51.079Z,4.95
2018-02-23T01:07:19.142Z,5.18
2018-02-23T01:09:47.190Z,4.45
2018-02-23T01:15:01.869Z,4.95
2018-02-23T01:17:29.933Z,5.07
2018-02-23T01:19:59.128Z,5.05
2018-02-23T01:22:27.173Z,4.90
2018-02-23T01:24:55.231Z,5.25
2018-02-23T01:27:23.293Z,5.00
2018-02-23T01:29:51.365Z,5.35
2018-02-23T01:32:19.433Z,5.25
2018-02-23T01:34:47.509Z,4.87
2018-02-23T01:37:15.552Z,4.82
2018-02-23T01:39:43.636Z,4.62
2018-02-23T01:42:11.701Z,4.68
2018-02-23T01:44:39.768Z,4.87
2018-02-23T01:47:07.806Z,5.15
2018-02-23T01:49:35.822Z,5.00
2018-02-23T01:52:03.850Z,5.10
2018-02-23T01:54:33.030Z,5.10
2018-02-23T01:57:01.076Z,4.90
2018-02-23T01:59:29.128Z,4.72
2018-02-23T02:01:57.195Z,5.10
2018-02-23T02:04:26.764Z,4.95
2018-02-23T02:06:56.301Z,5.00
2018-02-23T02:09:24.356Z,4.95
2018-02-23T02:11:52.490Z,5.40
2018-02-23T02:14:20.541Z,5.50
2018-02-23T02:16:48.560Z,5.20
2018-02-23T02:19:16.611Z,5.03
2018-02-23T02:21:44.676Z,5.20
2018-02-23T02:24:12.717Z,5.30
2018-02-23T02:26:40.785Z,5.70
2018-02-23T02:29:09.573Z,5.00
2018-02-23T02:31:39.130Z,4.90
2018-02-23T02:34:07.212Z,5.53
2018-02-23T02:36:36.759Z,4.78
2018-02-23T02:39:05.548Z,4.72
2018-02-23T02:41:34.357Z,4.97
2018-02-23T02:44:02.448Z,5.70
2018-02-23T02:46:30.481Z,5.30
2018-02-23T02:48:58.513Z,5.57
2018-02-23T02:51:26.635Z,5.47
2018-02-23T02:53:54.659Z,5.25
2018-02-23T02:56:22.699Z,5.70
2018-02-23T02:58:50.748Z,5.35
2018-02-23T03:01:18.798Z,5.30
2018-02-23T03:03:46.841Z,4.95
2018-02-23T03:06:14.876Z,5.32
2018-02-23T03:08:42.929Z,5.35
2018-02-23T03:11:10.936Z,5.32
2018-02-23T03:13:39.029Z,5.32
2018-02-23T03:16:08.203Z,5.97
2018-02-23T03:18:36.249Z,5.20
2018-02-23T03:21:05.066Z,5.65
2018-02-23T03:23:33.121Z,5.15
2018-02-23T03:26:01.158Z,5.47
2018-02-23T03:28:29.197Z,5.32
2018-02-23T03:30:57.224Z,5.80
2018-02-23T03:33:25.278Z,5.55
2018-02-23T03:35:53.366Z,5.50
2018-02-23T03:38:22.174Z,5.28
2018-02-23T03:40:50.204Z,6.12
2018-02-23T03:43:18.312Z,4.93
2018-02-23T03:45:46.498Z,5.18
2018-02-23T03:48:14.527Z,5.53
2018-02-23T03:50:42.562Z,5.50
2018-02-23T03:53:10.587Z,5.65
2018-02-23T03:55:38.650Z,5.37
2018-02-23T03:58:06.691Z,5.57
2018-02-23T04:00:34.754Z,6.43
2018-02-23T04:03:02.798Z,5.68
2018-02-23T04:05:30.832Z,5.30
2018-02-23T04:07:59.057Z,5.62
2018-02-23T04:10:27.083Z,5.15
2018-02-23T04:12:55.142Z,5.37
2018-02-23T04:15:23.946Z,5.78
2018-02-23T04:17:51.957Z,5.43
2018-02-23T04:20:20.000Z,5.82
2018-02-23T04:22:48.026Z,6.37
2018-02-23T04:25:16.064Z,6.82
2018-02-23T04:27:44.109Z,5.72
2018-02-23T04:30:12.171Z,5.55
2018-02-23T04:37:57.286Z,4.68
2018-02-23T04:40:25.755Z,3.95
2018-02-23T04:42:56.871Z,4.50
2018-02-23T04:45:25.523Z,4.60
2018-02-23T04:47:53.763Z,3.90
2018-02-23T04:50:21.805Z,3.65
2018-02-23T04:52:49.873Z,3.33
2018-02-23T04:55:17.956Z,3.70
2018-02-23T04:57:46.010Z,3.10
2018-02-23T05:00:14.054Z,3.28
2018-02-23T05:02:42.102Z,3.45
2018-02-23T05:05:10.151Z,3.58
2018-02-23T05:07:38.206Z,3.28
2018-02-23T05:10:06.251Z,3.33
2018-02-23T05:12:34.325Z,3.35
2018-02-23T05:15:02.363Z,3.45
2018-02-23T05:17:30.403Z,3.40
2018-02-23T05:19:58.461Z,3.42
2018-02-23T05:22:26.487Z,3.40
2018-02-23T05:24:54.535Z,8.95
2018-02-23T05:27:22.596Z,7.32
2018-02-23T05:29:50.633Z,5.78
2018-02-23T05:32:18.706Z,4.82
2018-02-23T05:34:46.735Z,4.93
2018-02-23T05:37:14.778Z,5.18
2018-02-23T05:39:42.810Z,4.72
2018-02-23T05:42:10.858Z,4.50
2018-02-23T05:44:38.923Z,4.45
2018-02-23T05:47:07.718Z,4.32
2018-02-23T05:49:36.038Z,4.65
2018-02-23T05:52:04.834Z,4.55
2018-02-23T05:54:32.860Z,4.45
2018-02-23T05:57:01.676Z,4.65
2018-02-23T05:59:29.695Z,4.60
2018-02-23T06:01:57.738Z,4.53
2018-02-23T06:04:25.801Z,4.50
2018-02-23T06:06:53.821Z,4.12
2018-02-23T06:09:21.893Z,4.10
2018-02-23T06:11:49.906Z,4.75
2018-02-23T06:14:17.926Z,3.53
2018-02-23T06:16:46.705Z,5.12
2018-02-23T06:19:20.084Z,4.72
2018-02-23T06:21:48.113Z,4.28
2018-02-23T06:24:16.180Z,3.85
2018-02-23T06:26:44.225Z,6.45
2018-02-23T06:29:13.781Z,5.97
2018-02-23T06:31:41.832Z,5.95
2018-02-23T06:34:09.885Z,5.50
2018-02-23T06:36:37.931Z,5.10
2018-02-23T06:39:05.993Z,5.50
2018-02-23T06:41:34.068Z,4.80
2018-02-23T06:44:02.090Z,4.82
2018-02-23T06:46:30.126Z,4.60
2018-02-23T06:48:58.175Z,7.53
2018-02-23T06:51:26.262Z,4.68
2018-02-23T06:53:54.306Z,4.62
2018-02-23T06:56:22.387Z,5.45
2018-02-23T06:58:50.452Z,5.28
2018-02-23T07:01:18.532Z,4.50
2018-02-23T07:03:46.640Z,4.87
2018-02-23T07:06:14.682Z,5.05
2018-02-23T07:08:42.731Z,4.68
2018-02-23T07:11:10.866Z,5.03
2018-02-23T07:13:39.106Z,5.65
2018-02-23T07:16:07.184Z,5.40
2018-02-23T07:18:36.068Z,5.25
2018-02-23T07:21:04.118Z,5.90
2018-02-23T07:23:32.176Z,5.12
2018-02-23T07:26:00.210Z,5.68
2018-02-23T07:28:28.229Z,5.90
2018-02-23T07:30:56.256Z,5.60
2018-02-23T07:33:24.318Z,6.10
2018-02-23T07:35:52.344Z,5.45
2018-02-23T07:38:20.386Z,5.60
2018-02-23T07:40:48.436Z,5.18
2018-02-23T07:43:16.553Z,12.90
2018-02-23T07:45:44.601Z,10.85
2018-02-23T07:48:13.400Z,7.95
2018-02-23T07:50:42.249Z,7.18
2018-02-23T07:53:10.325Z,6.80
2018-02-23T07:55:38.394Z,6.72
2018-02-23T07:58:06.483Z,6.40
2018-02-23T08:00:34.549Z,5.95
2018-02-23T08:03:02.595Z,4.97
2018-02-23T08:05:31.428Z,5.55
2018-02-23T08:07:59.514Z,5.30
2018-02-23T08:10:27.537Z,5.70
2018-02-23T08:12:55.561Z,5.05
2018-02-23T08:15:23.597Z,5.45
2018-02-23T08:17:51.665Z,5.07
2018-02-23T08:20:19.739Z,4.97
2018-02-23T08:22:47.806Z,4.70
2018-02-23T08:25:15.878Z,4.95
2018-02-23T08:27:43.928Z,5.30
2018-02-23T08:30:12.006Z,5.80
2018-02-23T08:32:40.091Z,6.05
2018-02-23T08:35:08.136Z,8.07
2018-02-23T08:37:36.175Z,7.78
2018-02-23T08:40:04.218Z,6.80
2018-02-23T08:42:33.045Z,5.95
2018-02-23T08:45:01.072Z,5.60
2018-02-23T08:47:29.109Z,6.18
2018-02-23T08:49:57.154Z,6.25
2018-02-23T08:52:25.204Z,5.85
2018-02-23T08:54:53.695Z,5.53
2018-02-23T08:57:21.727Z,5.47
2018-02-23T08:59:49.750Z,5.00
2018-02-23T09:02:17.800Z,4.70
2018-02-23T09:04:45.829Z,4.62
2018-02-23T09:07:13.960Z,4.62
2018-02-23T09:09:42.004Z,5.00
2018-02-23T09:12:10.194Z,4.90
2018-02-23T09:14:39.030Z,5.20
2018-02-23T09:17:07.062Z,4.95
2018-02-23T09:19:35.853Z,4.80
2018-02-23T09:22:04.141Z,5.43
2018-02-23T09:24:32.212Z,4.97
2018-02-23T09:27:00.257Z,5.07
2018-02-23T09:29:28.274Z,5.18
2018-02-23T09:31:56.511Z,5.30
2018-02-23T09:34:24.538Z,4.90
2018-02-23T09:36:52.610Z,5.87
2018-02-23T09:39:20.670Z,5.60
2018-02-23T09:41:48.948Z,5.10
2018-02-23T09:44:16.986Z,6.28
2018-02-23T09:46:45.758Z,5.60
2018-02-23T09:49:13.993Z,5.22
2018-02-23T09:51:42.032Z,5.22
2018-02-23T09:54:10.068Z,5.12
2018-02-23T09:56:38.122Z,5.15
2018-02-23T09:59:06.147Z,6.03
2018-02-23T10:01:34.941Z,5.47
2018-02-23T10:04:02.975Z,5.20
2018-02-23T10:06:31.010Z,5.43
2018-02-23T10:08:59.096Z,14.18
2018-02-23T10:11:27.135Z,14.60
2018-02-23T10:13:55.167Z,11.50
2018-02-23T10:16:23.206Z,10.00
2018-02-23T10:18:51.312Z,7.40
2018-02-23T10:21:19.377Z,8.27
2018-02-23T10:23:47.441Z,6.82
2018-02-23T10:26:15.501Z,5.95
2018-02-23T10:28:43.555Z,5.68
2018-02-23T10:31:11.607Z,6.15
2018-02-23T10:33:39.680Z,6.28
2018-02-23T10:36:07.756Z,7.15
2018-02-23T10:38:36.268Z,8.13
2018-02-23T10:41:04.322Z,6.97
2018-02-23T10:43:32.377Z,5.37
2018-02-23T10:46:00.482Z,5.50
2018-02-23T10:48:28.596Z,5.18
2018-02-23T10:50:56.681Z,5.75
2018-02-23T10:53:24.716Z,8.10
2018-02-23T10:55:52.776Z,7.30
2018-02-23T10:58:20.871Z,6.80
2018-02-23T11:00:48.916Z,7.25
2018-02-23T11:03:16.994Z,7.72
2018-02-23T11:05:45.056Z,6.93
2018-02-23T11:08:13.093Z,6.70
2018-02-23T11:10:41.138Z,7.65
2018-02-23T11:13:09.173Z,8.18
2018-02-23T11:15:37.220Z,7.80
2018-02-23T11:18:05.258Z,7.87
2018-02-23T11:20:33.333Z,7.97
2018-02-23T11:23:01.412Z,5.72
2018-02-23T11:25:29.454Z,5.40
2018-02-23T11:27:57.518Z,4.97
2018-02-23T11:30:25.606Z,4.75
2018-02-23T11:32:53.650Z,4.53
2018-02-23T11:35:21.729Z,4.28
2018-02-23T11:37:49.792Z,4.68
2018-02-23T11:40:17.861Z,4.35
2018-02-23T11:42:45.919Z,4.32
2018-02-23T11:45:13.975Z,4.15
2018-02-23T11:47:42.103Z,5.47
2018-02-23T11:50:10.131Z,5.37
2018-02-23T11:52:38.200Z,5.32
2018-02-23T11:55:06.249Z,8.07
2018-02-23T11:57:40.588Z,8.10
2018-02-23T12:00:09.409Z,5.03
2018-02-23T12:02:37.681Z,4.40
2018-02-23T12:05:05.763Z,4.25
2018-02-23T12:07:33.812Z,4.25
2018-02-23T12:10:01.865Z,4.50
2018-02-23T12:12:29.911Z,4.25
2018-02-23T12:14:58.884Z,4.00
2018-02-23T12:17:26.934Z,3.80
2018-02-23T12:19:55.957Z,4.10
2018-02-23T12:22:24.033Z,4.22
2018-02-23T12:24:52.097Z,3.60
2018-02-23T12:27:20.207Z,4.20
2018-02-23T12:29:48.287Z,3.78
2018-02-23T12:32:16.743Z,3.62
2018-02-23T12:34:44.786Z,3.85
2018-02-23T12:37:12.820Z,3.78
2018-02-23T12:39:40.844Z,3.75
2018-02-23T12:42:08.888Z,3.70
2018-02-23T12:44:36.966Z,3.62
2018-02-23T12:47:05.006Z,4.07
2018-02-23T12:49:33.039Z,3.92
2018-02-23T12:52:01.324Z,4.18
2018-02-23T12:54:29.435Z,3.95
2018-02-23T12:56:57.481Z,3.62
2018-02-23T12:59:25.578Z,4.00
2018-02-23T13:01:53.964Z,3.90
2018-02-23T13:04:22.026Z,3.60
2018-02-23T13:06:50.071Z,3.95
2018-02-23T13:09:18.148Z,3.78
2018-02-23T13:11:46.978Z,3.37
2018-02-23T13:14:15.072Z,3.97
2018-02-23T13:16:43.188Z,3.60
2018-02-23T13:19:11.278Z,3.65
2018-02-23T13:21:39.335Z,4.03
2018-02-23T13:24:07.641Z,3.47
2018-02-23T13:26:35.713Z,3.45
2018-02-23T13:29:03.755Z,3.37
2018-02-23T13:31:31.791Z,3.40
2018-02-23T13:33:59.823Z,3.47
2018-02-23T13:36:27.886Z,4.00
2018-02-23T13:38:55.953Z,5.25
2018-02-23T13:41:29.391Z,4.40
2018-02-23T13:43:57.670Z,4.28
2018-02-23T13:46:25.732Z,3.83
2018-02-23T13:48:53.785Z,3.78
2018-02-23T13:51:21.973Z,4.03
2018-02-23T13:53:50.052Z,4.32
2018-02-23T13:56:18.111Z,3.85
2018-02-23T13:58:46.161Z,3.90
2018-02-23T14:01:15.009Z,6.25
2018-02-23T14:03:43.055Z,4.55
2018-02-23T14:06:11.104Z,4.15
2018-02-23T14:08:39.151Z,3.90
2018-02-23T14:11:07.223Z,4.95
2018-02-23T14:13:36.783Z,4.37
2018-02-23T14:16:04.844Z,4.35
2018-02-23T14:18:33.105Z,4.57
2018-02-23T14:21:01.179Z,5.57
2018-02-23T14:23:29.215Z,5.55
2018-02-23T14:25:57.265Z,4.80
2018-02-23T14:28:25.326Z,9.13
2018-02-23T14:30:53.384Z,5.87
2018-02-23T14:33:22.187Z,4.65
2018-02-23T14:35:50.265Z,4.35
2018-02-23T14:38:18.343Z,4.35
2018-02-23T14:40:46.386Z,4.47
2018-02-23T14:43:14.441Z,5.00
2018-02-23T14:45:42.516Z,4.90
2018-02-23T14:48:10.610Z,4.40
2018-02-23T14:50:38.703Z,5.00
2018-02-23T14:53:06.776Z,4.70
2018-02-23T14:55:34.820Z,4.22
2018-02-23T14:58:02.891Z,4.87
2018-02-23T15:00:30.941Z,4.25
2018-02-23T15:02:58.972Z,4.40
2018-02-23T15:05:27.036Z,4.30
2018-02-23T15:07:55.072Z,4.80
2018-02-23T15:10:23.147Z,4.62
2018-02-23T15:12:51.191Z,4.28
2018-02-23T15:15:19.270Z,4.22
2018-02-23T15:17:47.351Z,4.30
2018-02-23T15:20:15.420Z,3.83
2018-02-23T15:22:43.460Z,4.20
2018-02-23T15:25:12.276Z,4.15
2018-02-23T15:27:40.372Z,3.78
2018-02-23T15:30:08.597Z,4.85
2018-02-23T15:32:36.666Z,4.43
2018-02-23T15:35:04.722Z,4.60
2018-02-23T15:37:32.798Z,4.30
2018-02-23T15:40:00.826Z,4.03
2018-02-23T15:42:28.864Z,3.80
2018-02-23T15:44:56.932Z,4.10
2018-02-23T15:47:28.283Z,3.65
2018-02-23T15:49:59.722Z,3.72
2018-02-23T15:52:27.815Z,4.25
2018-02-23T15:54:55.871Z,3.60
2018-02-23T15:57:29.144Z,3.90
2018-02-23T15:59:57.234Z,3.40
2018-02-23T16:02:25.362Z,3.03
2018-02-23T16:04:53.506Z,3.40
2018-02-23T16:07:21.619Z,3.83
2018-02-23T16:09:49.678Z,3.70
2018-02-23T16:12:17.710Z,3.60
2018-02-23T16:14:46.536Z,3.85
2018-02-23T16:17:14.576Z,3.20
2018-02-23T16:19:43.431Z,3.70
2018-02-23T16:22:11.508Z,3.47
2018-02-23T16:24:39.577Z,3.12
2018-02-23T16:27:07.636Z,3.75
2018-02-23T16:29:35.690Z,3.60
2018-02-23T16:32:04.399Z,3.40
2018-02-23T16:34:32.503Z,3.80
2018-02-23T16:37:00.659Z,3.30
2018-02-23T16:39:28.699Z,3.72
2018-02-23T16:41:56.744Z,3.17
2018-02-23T16:44:24.784Z,2.90
2018-02-23T16:46:52.893Z,2.78
2018-02-23T16:49:22.044Z,3.40
2018-02-23T16:51:50.081Z,3.33
2018-02-23T16:54:18.140Z,3.53
2018-02-23T16:56:46.238Z,3.08
2018-02-23T16:59:14.281Z,3.40
2018-02-23T17:01:42.449Z,3.50
2018-02-23T17:04:10.497Z,3.28
2018-02-23T17:06:38.582Z,3.40
2018-02-23T17:09:06.644Z,4.28
2018-02-23T17:11:34.732Z,4.62
2018-02-23T17:14:02.766Z,3.45
2018-02-23T17:16:30.863Z,3.37
2018-02-23T17:18:58.902Z,3.15
2018-02-23T17:21:26.989Z,3.90
2018-02-23T17:23:55.049Z,3.72
2018-02-23T17:26:23.091Z,3.10
2018-02-23T17:28:51.168Z,2.87
2018-02-23T17:31:19.973Z,3.47
2018-02-23T17:33:48.032Z,3.37
2018-02-23T17:36:16.116Z,3.83
2018-02-23T17:38:44.414Z,3.53
2018-02-23T17:41:12.477Z,3.17
2018-02-23T17:43:40.818Z,3.75
2018-02-23T17:46:08.864Z,3.65
2018-02-23T17:48:36.893Z,3.58
2018-02-23T17:51:04.940Z,3.30
2018-02-23T17:53:32.990Z,3.20
2018-02-23T17:56:01.043Z,3.30
2018-02-23T17:58:29.071Z,3.30
2018-02-23T18:00:57.905Z,3.20
2018-02-23T18:03:25.967Z,3.53
2018-02-23T18:05:54.060Z,3.33
2018-02-23T18:08:22.095Z,3.40
2018-02-23T18:10:50.183Z,3.28
2018-02-23T18:13:18.225Z,3.35
2018-02-23T18:15:46.256Z,3.33
2018-02-23T18:18:14.343Z,3.47
2018-02-23T18:20:42.397Z,3.45
2018-02-23T18:23:10.500Z,3.95
2018-02-23T18:25:38.571Z,3.83
2018-02-23T18:28:06.646Z,4.87
2018-02-23T18:30:34.701Z,4.45
2018-02-23T18:33:02.793Z,4.05
2018-02-23T18:35:30.869Z,4.60
2018-02-23T18:37:58.942Z,4.60
2018-02-23T18:40:27.004Z,4.10
2018-02-23T18:42:55.063Z,3.92
2018-02-23T18:45:23.129Z,3.95
2018-02-23T18:47:51.176Z,4.57
2018-02-23T18:50:19.231Z,4.30
2018-02-23T18:52:47.257Z,3.65
2018-02-23T18:55:15.319Z,3.70
2018-02-23T18:57:44.144Z,3.95
2018-02-23T19:00:12.202Z,3.80
2018-02-23T19:02:40.262Z,3.58
2018-02-23T19:05:08.395Z,3.85
2018-02-23T19:07:37.382Z,3.83
2018-02-23T19:10:05.802Z,3.90
2018-02-23T19:12:35.513Z,3.70
2018-02-23T19:15:03.532Z,3.53
2018-02-23T19:17:31.536Z,3.40
2018-02-23T19:20:00.340Z,3.40
2018-02-23T19:22:28.466Z,3.60
2018-02-23T19:24:56.537Z,3.62
2018-02-23T19:27:24.606Z,3.90
2018-02-23T19:29:52.651Z,3.45
2018-02-23T19:32:20.738Z,3.97
2018-02-23T19:34:48.823Z,3.78
2018-02-23T19:37:16.943Z,4.03
2018-02-23T19:39:45.021Z,4.53
2018-02-23T19:42:13.078Z,4.20
2018-02-23T19:44:41.215Z,6.28
2018-02-23T19:47:09.281Z,4.75
2018-02-23T19:49:37.332Z,4.35
2018-02-23T19:52:05.441Z,4.50
2018-02-23T19:54:33.509Z,4.60
2018-02-23T19:57:01.556Z,4.10
2018-02-23T19:59:29.607Z,3.83
2018-02-23T20:01:57.667Z,4.18
2018-02-23T20:04:26.478Z,4.75
2018-02-23T20:06:54.555Z,4.20
2018-02-23T20:09:22.594Z,3.53
2018-02-23T20:11:50.669Z,3.58
2018-02-23T20:14:18.691Z,3.75
2018-02-23T20:16:46.786Z,3.83
2018-02-23T20:19:14.846Z,3.60
2018-02-23T20:21:42.925Z,3.65
2018-02-23T20:24:10.962Z,3.80
2018-02-23T20:26:39.026Z,3.60
2018-02-23T20:29:07.049Z,3.87
2018-02-23T20:31:35.096Z,3.80
2018-02-23T20:34:03.186Z,3.80
2018-02-23T20:36:31.248Z,3.78
2018-02-23T20:38:59.304Z,3.37
2018-02-23T20:41:27.728Z,3.30
2018-02-23T20:43:55.810Z,3.65
2018-02-23T20:46:23.878Z,3.40
2018-02-23T20:48:52.000Z,3.10
2018-02-23T20:51:20.085Z,3.30
2018-02-23T20:53:48.155Z,3.33
2018-02-23T20:56:16.214Z,3.20
2018-02-23T20:58:44.309Z,3.78
2018-02-23T21:01:12.360Z,3.50
2018-02-23T21:03:40.436Z,3.62
2018-02-23T21:06:08.556Z,3.42
2018-02-23T21:08:36.647Z,3.72
2018-02-23T21:11:04.707Z,3.35
2018-02-23T21:13:32.781Z,3.97
2018-02-23T21:16:00.845Z,4.03
2018-02-23T21:18:28.898Z,3.72
2018-02-23T21:20:56.937Z,3.83
2018-02-23T21:23:25.000Z,3.92
2018-02-23T21:25:53.052Z,3.95
2018-02-23T21:28:21.119Z,3.87
2018-02-23T21:30:49.937Z,4.00
2018-02-23T21:33:18.018Z,4.20
2018-02-23T21:35:46.052Z,3.65
2018-02-23T21:38:14.122Z,3.78
2018-02-23T21:40:42.218Z,3.62
2018-02-23T21:43:10.266Z,3.62
2018-02-23T21:45:38.407Z,4.43
2018-02-23T21:48:06.446Z,4.43
2018-02-23T21:50:34.517Z,4.15
2018-02-23T21:53:02.582Z,4.20
2018-02-23T21:55:30.647Z,4.20
2018-02-23T21:57:58.738Z,3.95
2018-02-23T22:00:26.806Z,3.90
2018-02-23T22:02:54.853Z,3.75
2018-02-23T22:05:22.935Z,3.65
2018-02-23T22:07:51.011Z,3.62
2018-02-23T22:10:19.077Z,3.65
2018-02-23T22:12:47.133Z,3.60
2018-02-23T22:15:15.216Z,4.20
2018-02-23T22:17:43.252Z,3.78
2018-02-23T22:20:11.271Z,3.78
2018-02-23T22:22:40.069Z,3.85
2018-02-23T22:25:08.098Z,3.78
2018-02-23T22:27:36.193Z,3.60
2018-02-23T22:30:04.226Z,4.32
2018-02-23T22:32:32.278Z,3.70
2018-02-23T22:35:00.290Z,3.60
2018-02-23T22:37:28.329Z,4.20
2018-02-23T22:39:56.383Z,3.95
2018-02-23T22:42:24.413Z,3.97
2018-02-23T22:44:52.462Z,4.35
2018-02-23T22:47:20.500Z,4.20
2018-02-23T22:49:48.569Z,3.78
2018-02-23T22:52:16.660Z,4.10
2018-02-23T22:54:44.718Z,4.18
2018-02-23T22:57:12.761Z,4.32
2018-02-23T22:59:40.803Z,3.75
2018-02-23T23:02:08.839Z,4.18
2018-02-23T23:04:36.903Z,4.12
2018-02-23T23:07:04.946Z,4.18
2018-02-23T23:09:33.005Z,4.37
2018-02-23T23:12:01.081Z,4.30
2018-02-23T23:14:29.102Z,3.80
2018-02-23T23:16:57.169Z,4.30
2018-02-23T23:19:25.215Z,3.90
2018-02-23T23:21:53.251Z,4.00
2018-02-23T23:24:21.283Z,4.12
2018-02-23T23:26:49.330Z,4.55
2018-02-23T23:29:17.400Z,4.37
2018-02-23T23:31:45.463Z,4.37
2018-02-23T23:34:13.492Z,4.10
2018-02-23T23:36:43.056Z,4.20
2018-02-23T23:39:11.108Z,4.35
2018-02-23T23:41:39.184Z,4.30
2018-02-23T23:44:07.223Z,4.05
2018-02-23T23:46:35.255Z,3.80
2018-02-23T23:49:03.291Z,4.55
2018-02-23T23:51:31.345Z,4.72
2018-02-23T23:53:59.367Z,4.12
2018-02-23T23:56:27.407Z,4.30
2018-02-23T23:58:55.481Z,4.28
